sensor_id;sensor_type;location;lat;lon;timestamp;P1;durP1;ratioP1;P2;durP2;ratioP2
57307;SDS011;43152;50.968;18.214;2022-12-15T00:06:31;102.10;;;32.50;;
57307;SDS011;43152;50.968;18.214;2022-12-15T00:17:29;74.30;;;22.40;;
57307;SDS011;43152;50.968;18.214;2022-12-15T00:28:33;39.70;;;15.10;;
57307;SDS011;43152;50.968;18.214;2022-12-15T00:39:29;70.30;;;22.10;;
57307;SDS011;43152;50.968;18.214;2022-12-15T00:49:22;60.00;;;22.80;;
57307;SDS011;43152;50.968;18.214;2022-12-15T01:00:24;60.10;;;22.40;;
57307;SDS011;43152;50.968;18.214;2022-12-15T01:11:25;72.80;;;22.00;;
57307;SDS011;43152;50.968;18.214;2022-12-15T01:22:24;63.20;;;23.40;;
57307;SDS011;43152;50.968;18.214;2022-12-15T01:32:06;42.20;;;16.60;;
57307;SDS011;43152;50.968;18.214;2022-12-15T01:41:47;71.70;;;21.40;;
57307;SDS011;43152;50.968;18.214;2022-12-15T01:51:39;63.00;;;23.00;;
57307;SDS011;43152;50.968;18.214;2022-12-15T02:01:28;40.20;;;15.30;;
57307;SDS011;43152;50.968;18.214;2022-12-15T02:11:22;20.00;;;9.60;;
57307;SDS011;43152;50.968;18.214;2022-12-15T02:21:28;55.40;;;21.60;;
57307;SDS011;43152;50.968;18.214;2022-12-15T02:32:07;77.10;;;25.10;;
57307;SDS011;43152;50.968;18.214;2022-12-15T02:42:05;49.20;;;21.40;;
57307;SDS011;43152;50.968;18.214;2022-12-15T03:02:38;71.60;;;19.20;;
57307;SDS011;43152;50.968;18.214;2022-12-15T03:12:24;76.20;;;23.10;;
57307;SDS011;43152;50.968;18.214;2022-12-15T03:22:06;40.10;;;16.70;;
57307;SDS011;43152;50.968;18.214;2022-12-15T03:31:48;61.60;;;21.30;;
57307;SDS011;43152;50.968;18.214;2022-12-15T03:41:30;38.30;;;12.30;;
57307;SDS011;43152;50.968;18.214;2022-12-15T03:51:11;74.80;;;22.20;;
57307;SDS011;43152;50.968;18.214;2022-12-15T04:00:53;61.40;;;26.50;;
57307;SDS011;43152;50.968;18.214;2022-12-15T04:10:35;69.80;;;25.00;;
57307;SDS011;43152;50.968;18.214;2022-12-15T04:20:19;67.50;;;29.70;;
57307;SDS011;43152;50.968;18.214;2022-12-15T04:30:44;70.80;;;22.90;;
57307;SDS011;43152;50.968;18.214;2022-12-15T04:41:43;71.20;;;29.20;;
57307;SDS011;43152;50.968;18.214;2022-12-15T04:52:40;87.40;;;26.90;;
57307;SDS011;43152;50.968;18.214;2022-12-15T05:03:39;73.40;;;23.50;;
57307;SDS011;43152;50.968;18.214;2022-12-15T05:14:35;72.70;;;22.80;;
57307;SDS011;43152;50.968;18.214;2022-12-15T05:25:36;92.30;;;29.80;;
57307;SDS011;43152;50.968;18.214;2022-12-15T05:36:16;62.70;;;24.50;;
57307;SDS011;43152;50.968;18.214;2022-12-15T05:46:02;88.00;;;30.60;;
57307;SDS011;43152;50.968;18.214;2022-12-15T05:57:50;80.90;;;25.80;;
57307;SDS011;43152;50.968;18.214;2022-12-15T06:07:34;61.70;;;20.50;;
57307;SDS011;43152;50.968;18.214;2022-12-15T06:17:17;73.40;;;20.90;;
57307;SDS011;43152;50.968;18.214;2022-12-15T06:27:00;64.00;;;21.60;;
57307;SDS011;43152;50.968;18.214;2022-12-15T06:36:42;83.70;;;27.10;;
57307;SDS011;43152;50.968;18.214;2022-12-15T06:46:27;78.70;;;25.10;;
57307;SDS011;43152;50.968;18.214;2022-12-15T07:06:07;44.60;;;13.90;;
57307;SDS011;43152;50.968;18.214;2022-12-15T07:15:58;59.90;;;24.20;;
57307;SDS011;43152;50.968;18.214;2022-12-15T07:25:42;77.00;;;23.20;;
57307;SDS011;43152;50.968;18.214;2022-12-15T07:35:24;83.00;;;20.50;;
57307;SDS011;43152;50.968;18.214;2022-12-15T07:45:06;61.00;;;21.90;;
57307;SDS011;43152;50.968;18.214;2022-12-15T07:54:49;44.20;;;16.10;;
57307;SDS011;43152;50.968;18.214;2022-12-15T08:04:35;63.50;;;19.60;;
57307;SDS011;43152;50.968;18.214;2022-12-15T08:14:18;64.50;;;21.40;;
57307;SDS011;43152;50.968;18.214;2022-12-15T08:24:04;48.60;;;17.30;;
57307;SDS011;43152;50.968;18.214;2022-12-15T08:33:47;49.90;;;17.10;;
57307;SDS011;43152;50.968;18.214;2022-12-15T08:43:51;38.30;;;15.10;;
57307;SDS011;43152;50.968;18.214;2022-12-15T08:53:55;45.50;;;16.40;;
57307;SDS011;43152;50.968;18.214;2022-12-15T09:03:41;43.60;;;17.60;;
57307;SDS011;43152;50.968;18.214;2022-12-15T09:13:30;42.90;;;18.80;;
57307;SDS011;43152;50.968;18.214;2022-12-15T09:23:24;80.10;;;8.60;;
57307;SDS011;43152;50.968;18.214;2022-12-15T09:40:23;63.40;;;20.80;;
57307;SDS011;43152;50.968;18.214;2022-12-15T09:50:13;148.10;;;36.70;;
57307;SDS011;43152;50.968;18.214;2022-12-15T10:00:16;96.90;;;35.00;;
57307;SDS011;43152;50.968;18.214;2022-12-15T10:10:48;36.10;;;15.20;;
57307;SDS011;43152;50.968;18.214;2022-12-15T10:38:33;33.10;;;13.90;;
57307;SDS011;43152;50.968;18.214;2022-12-15T10:48:26;17.90;;;6.60;;
57307;SDS011;43152;50.968;18.214;2022-12-15T10:58:27;30.10;;;12.40;;
57307;SDS011;43152;50.968;18.214;2022-12-15T11:08:27;50.40;;;20.80;;
57307;SDS011;43152;50.968;18.214;2022-12-15T11:39:02;33.90;;;14.70;;
57307;SDS011;43152;50.968;18.214;2022-12-15T11:49:29;22.70;;;10.80;;
57307;SDS011;43152;50.968;18.214;2022-12-15T11:59:57;37.30;;;12.10;;
57307;SDS011;43152;50.968;18.214;2022-12-15T12:21:08;19.90;;;8.40;;
57307;SDS011;43152;50.968;18.214;2022-12-15T12:44:36;54.40;;;22.10;;
57307;SDS011;43152;50.968;18.214;2022-12-15T12:54:52;46.00;;;17.70;;
57307;SDS011;43152;50.968;18.214;2022-12-15T13:15:30;63.40;;;25.20;;
57307;SDS011;43152;50.968;18.214;2022-12-15T13:25:25;285.80;;;74.50;;
57307;SDS011;43152;50.968;18.214;2022-12-15T13:35:59;155.50;;;47.20;;
57307;SDS011;43152;50.968;18.214;2022-12-15T13:53:17;240.00;;;75.10;;
57307;SDS011;43152;50.968;18.214;2022-12-15T14:03:17;186.60;;;61.60;;
57307;SDS011;43152;50.968;18.214;2022-12-15T14:13:55;237.80;;;59.80;;
57307;SDS011;43152;50.968;18.214;2022-12-15T14:23:55;243.50;;;47.60;;
57307;SDS011;43152;50.968;18.214;2022-12-15T14:33:50;193.70;;;47.10;;
57307;SDS011;43152;50.968;18.214;2022-12-15T14:43:51;99.70;;;37.70;;
57307;SDS011;43152;50.968;18.214;2022-12-15T14:53:50;79.30;;;18.70;;
57307;SDS011;43152;50.968;18.214;2022-12-15T15:03:46;133.70;;;45.30;;
57307;SDS011;43152;50.968;18.214;2022-12-15T15:13:41;161.20;;;47.90;;
57307;SDS011;43152;50.968;18.214;2022-12-15T15:23:24;189.00;;;54.00;;
57307;SDS011;43152;50.968;18.214;2022-12-15T15:33:09;287.20;;;82.10;;
57307;SDS011;43152;50.968;18.214;2022-12-15T15:42:54;399.20;;;107.70;;
57307;SDS011;43152;50.968;18.214;2022-12-15T15:52:38;357.50;;;96.90;;
57307;SDS011;43152;50.968;18.214;2022-12-15T16:09:46;301.20;;;66.80;;
57307;SDS011;43152;50.968;18.214;2022-12-15T16:19:49;164.60;;;48.10;;
57307;SDS011;43152;50.968;18.214;2022-12-15T16:29:35;154.00;;;45.50;;
57307;SDS011;43152;50.968;18.214;2022-12-15T16:39:24;136.40;;;38.80;;
57307;SDS011;43152;50.968;18.214;2022-12-15T16:49:10;95.00;;;31.80;;
57307;SDS011;43152;50.968;18.214;2022-12-15T17:06:12;195.30;;;64.90;;
57307;SDS011;43152;50.968;18.214;2022-12-15T17:16:03;269.00;;;77.70;;
57307;SDS011;43152;50.968;18.214;2022-12-15T17:26:14;116.50;;;44.70;;
57307;SDS011;43152;50.968;18.214;2022-12-15T17:36:10;132.30;;;41.40;;
57307;SDS011;43152;50.968;18.214;2022-12-15T17:53:22;75.70;;;19.40;;
57307;SDS011;43152;50.968;18.214;2022-12-15T18:03:14;87.00;;;26.20;;
57307;SDS011;43152;50.968;18.214;2022-12-15T18:13:05;89.00;;;22.60;;
57307;SDS011;43152;50.968;18.214;2022-12-15T18:23:19;82.80;;;24.50;;
57307;SDS011;43152;50.968;18.214;2022-12-15T18:33:12;85.70;;;25.50;;
57307;SDS011;43152;50.968;18.214;2022-12-15T18:43:04;112.50;;;34.00;;
57307;SDS011;43152;50.968;18.214;2022-12-15T18:52:55;204.40;;;55.90;;
57307;SDS011;43152;50.968;18.214;2022-12-15T19:02:53;129.50;;;37.70;;
57307;SDS011;43152;50.968;18.214;2022-12-15T19:12:47;124.90;;;40.50;;
57307;SDS011;43152;50.968;18.214;2022-12-15T19:23:11;71.40;;;23.20;;
57307;SDS011;43152;50.968;18.214;2022-12-15T19:33:22;63.80;;;25.50;;
57307;SDS011;43152;50.968;18.214;2022-12-15T19:43:12;41.70;;;11.30;;
57307;SDS011;43152;50.968;18.214;2022-12-15T19:53:00;61.00;;;22.30;;
57307;SDS011;43152;50.968;18.214;2022-12-15T20:02:52;86.30;;;24.20;;
57307;SDS011;43152;50.968;18.214;2022-12-15T20:12:42;80.60;;;20.20;;
57307;SDS011;43152;50.968;18.214;2022-12-15T20:22:29;103.20;;;26.50;;
57307;SDS011;43152;50.968;18.214;2022-12-15T20:32:12;70.80;;;21.20;;
57307;SDS011;43152;50.968;18.214;2022-12-15T20:53:16;108.50;;;31.30;;
57307;SDS011;43152;50.968;18.214;2022-12-15T21:03:00;67.90;;;22.10;;
57307;SDS011;43152;50.968;18.214;2022-12-15T21:12:44;56.00;;;19.90;;
57307;SDS011;43152;50.968;18.214;2022-12-15T21:22:31;48.80;;;15.80;;
57307;SDS011;43152;50.968;18.214;2022-12-15T21:32:15;44.20;;;14.70;;
57307;SDS011;43152;50.968;18.214;2022-12-15T21:42:17;78.20;;;25.60;;
57307;SDS011;43152;50.968;18.214;2022-12-15T21:52:36;47.20;;;18.40;;
57307;SDS011;43152;50.968;18.214;2022-12-15T22:02:24;40.60;;;15.20;;
57307;SDS011;43152;50.968;18.214;2022-12-15T22:12:08;53.20;;;21.30;;
57307;SDS011;43152;50.968;18.214;2022-12-15T22:22:07;96.70;;;29.70;;
57307;SDS011;43152;50.968;18.214;2022-12-15T22:31:49;115.30;;;27.40;;
57307;SDS011;43152;50.968;18.214;2022-12-15T22:41:46;129.40;;;40.50;;
57307;SDS011;43152;50.968;18.214;2022-12-15T22:51:45;162.70;;;49.10;;
57307;SDS011;43152;50.968;18.214;2022-12-15T23:22:09;165.70;;;50.60;;
57307;SDS011;43152;50.968;18.214;2022-12-15T23:31:51;13.40;;;3.10;;
57307;SDS011;43152;50.968;18.214;2022-12-15T23:41:33;134.40;;;50.40;;
57307;SDS011;43152;50.968;18.214;2022-12-15T23:58:37;104.30;;;36.90;;
